Time;durP1;ratioP1;P1;durP2;ratioP2;P2;SDS_P1;SDS_P2;PMS_P1;PMS_P2;Temp;Humidity;BMP_temperature;BMP_pressure;BME280_temperature;BME280_humidity;BME280_pressure;Samples;Min_cycle;Max_cycle;Signal;HPM_P1;HPM_P2
2021/08/24 00:01:43;;;;;;;31.90;8.83;;;;;;;19.46;55.77;101038.44;1772860;80;21056;-64
2021/08/24 00:04:11;;;;;;;39.40;8.50;;;;;;;19.46;55.85;101043.87;1783721;79;21076;-63
2021/08/24 00:06:39;;;;;;;47.40;9.75;;;;;;;19.47;55.95;101050.20;1764957;79;21036;-63
2021/08/24 00:09:06;;;;;;;48.25;9.58;;;;;;;19.45;56.17;101044.86;1769812;79;21584;-64
2021/08/24 00:11:34;;;;;;;45.45;9.53;;;;;;;19.43;56.70;101046.81;1759517;80;21840;-62
2021/08/24 00:14:04;;;;;;;44.80;9.00;;;;;;;19.42;56.94;101043.70;1773864;79;21608;-64
2021/08/24 00:16:30;;;;;;;43.28;8.20;;;;;;;19.41;57.55;101043.33;1770955;79;21005;-63
2021/08/24 00:18:58;;;;;;;62.95;8.83;;;;;;;19.42;58.42;101038.27;1779584;78;21123;-64
2021/08/24 00:21:25;;;;;;;33.00;7.35;;;;;;;19.42;58.83;101042.34;1776615;79;21261;-62
2021/08/24 00:23:52;;;;;;;68.25;8.93;;;;;;;19.43;59.77;101038.66;1770018;79;21137;-62
2021/08/24 00:26:19;;;;;;;48.28;9.08;;;;;;;19.45;59.94;101039.89;1764578;81;21640;-62
2021/08/24 00:28:46;;;;;;;40.80;7.53;;;;;;;19.47;60.32;101038.82;1764398;81;21414;-62
2021/08/24 00:31:13;;;;;;;43.75;7.97;;;;;;;19.51;60.72;101042.69;1761693;81;21422;-64
2021/08/24 00:33:40;;;;;;;55.15;8.50;;;;;;;19.53;61.13;101036.18;1767867;81;21028;-64
2021/08/24 00:36:07;;;;;;;55.80;9.38;;;;;;;19.55;61.88;101033.34;1766316;81;21076;-64
2021/08/24 00:38:34;;;;;;;43.55;9.28;;;;;;;19.55;62.75;101033.34;1770687;81;21088;-62
2021/08/24 00:41:02;;;;;;;36.10;7.30;;;;;;;19.59;63.63;101026.73;1746794;81;21076;-62
2021/08/24 00:43:31;;;;;;;47.00;8.15;;;;;;;19.65;64.07;101026.30;1767955;81;20945;-62
2021/08/24 00:46:20;;;;;;;44.83;7.70;;;;;;;19.71;63.97;101027.23;1769097;81;21561;-61
2021/08/24 00:48:47;;;;;;;68.17;8.20;;;;;;;19.74;64.31;101024.29;1750333;81;21128;-63
2021/08/24 00:51:16;;;;;;;55.15;8.08;;;;;;;19.76;64.68;101020.97;1769002;79;21462;-63
2021/08/24 00:53:43;;;;;;;34.92;6.97;;;;;;;19.81;65.37;101026.61;1743452;80;21560;-63
2021/08/24 00:56:10;;;;;;;25.55;6.70;;;;;;;19.80;65.75;101025.72;1760186;79;21131;-63
2021/08/24 00:58:39;;;;;;;14.55;5.30;;;;;;;19.84;67.77;101025.88;1767283;81;21092;-62
2021/08/24 01:01:18;;;;;;;17.60;5.50;;;;;;;19.87;68.45;101025.66;1763065;81;21559;-63
2021/08/24 01:03:47;;;;;;;16.65;4.85;;;;;;;19.93;69.65;101030.34;1768595;79;21016;-61
2021/08/24 01:06:42;;;;;;;19.87;5.33;;;;;;;19.99;70.25;101022.59;1789264;78;21577;-63
2021/08/24 01:09:42;;;;;;;14.83;4.80;;;;;;;20.09;70.45;101028.26;1794657;77;21041;-62
2021/08/24 01:12:40;;;;;;;19.65;6.10;;;;;;;20.18;70.94;101021.30;1795005;77;22188;-62
2021/08/24 01:15:31;;;;;;;21.52;6.60;;;;;;;20.26;71.37;101019.39;1787040;80;21484;-63
2021/08/24 01:18:21;;;;;;;23.80;5.05;;;;;;;20.35;71.61;101020.58;1786032;78;21032;-62
2021/08/24 01:21:17;;;;;;;19.40;5.35;;;;;;;20.44;71.85;101030.79;1790938;79;20956;-62
2021/08/24 01:24:31;;;;;;;16.82;5.58;;;;;;;20.54;72.66;101029.63;1790429;79;21032;-62
2021/08/24 01:27:13;;;;;;;28.02;5.40;;;;;;;20.65;72.61;101024.76;1789182;78;21072;-62
2021/08/24 01:29:52;;;;;;;23.57;6.12;;;;;;;20.66;72.75;101026.02;1789800;80;21247;-61
2021/08/24 01:32:40;;;;;;;22.40;5.40;;;;;;;20.70;72.97;101029.40;1782835;79;21461;-62
2021/08/24 01:35:42;;;;;;;25.45;5.67;;;;;;;20.71;73.29;101029.27;1767644;80;21127;-64
2021/08/24 01:38:28;;;;;;;23.10;5.45;;;;;;;20.72;73.80;101026.92;1789477;78;21115;-63
2021/08/24 01:41:37;;;;;;;17.32;5.83;;;;;;;20.76;74.82;101026.22;1787602;78;20879;-63
2021/08/24 01:44:21;;;;;;;19.23;6.53;;;;;;;20.86;74.81;101019.12;1777267;80;21148;-64
2021/08/24 01:47:03;;;;;;;25.85;6.60;;;;;;;21.01;73.81;101020.33;1790647;80;21015;-64
2021/08/24 01:49:35;;;;;;;22.45;6.12;;;;;;;21.15;73.19;101023.37;1715109;83;21509;-64
2021/08/24 01:52:09;;;;;;;23.20;6.28;;;;;;;21.24;72.67;101025.89;1750876;81;21500;-64
2021/08/24 01:54:43;;;;;;;21.68;6.78;;;;;;;21.30;72.37;101024.05;1754263;81;21103;-64
2021/08/24 01:57:15;;;;;;;22.98;6.60;;;;;;;21.33;72.23;101021.97;1748851;81;21900;-64
2021/08/24 01:59:52;;;;;;;17.85;6.00;;;;;;;21.40;72.04;101029.67;1752918;81;21713;-63
2021/08/24 02:02:25;;;;;;;27.25;7.12;;;;;;;21.45;71.80;101026.98;1743157;81;21060;-65
2021/08/24 02:05:02;;;;;;;28.23;7.35;;;;;;;21.49;71.79;101026.26;1756404;80;21033;-63
2021/08/24 02:07:31;;;;;;;27.75;7.28;;;;;;;21.53;71.60;101025.50;1736729;80;21550;-63
2021/08/24 02:10:02;;;;;;;22.37;7.35;;;;;;;21.52;71.55;101025.12;1784702;80;21095;-62
2021/08/24 02:12:31;;;;;;;20.80;6.70;;;;;;;21.50;72.14;101024.38;1784131;79;21552;-62
2021/08/24 02:15:00;;;;;;;24.20;7.00;;;;;;;21.47;72.19;101016.81;1785322;80;20976;-63
2021/08/24 02:17:27;;;;;;;27.85;7.25;;;;;;;21.50;72.09;101010.75;1784426;79;21083;-63
2021/08/24 02:20:00;;;;;;;24.27;7.20;;;;;;;21.50;72.03;101016.20;1784066;79;21516;-61
2021/08/24 02:22:31;;;;;;;25.72;7.60;;;;;;;21.45;72.35;101011.98;1776863;80;21197;-61
2021/08/24 02:25:03;;;;;;;23.70;6.50;;;;;;;21.49;72.28;101012.63;1778781;80;21480;-61
2021/08/24 02:27:32;;;;;;;28.27;7.58;;;;;;;21.51;72.54;101013.84;1784678;80;21614;-63
2021/08/24 02:30:00;;;;;;;19.02;7.40;;;;;;;21.52;72.64;101010.13;1785238;79;21087;-63
2021/08/24 02:32:38;;;;;;;21.95;7.15;;;;;;;21.53;72.78;101008.66;1778934;79;21952;-62
2021/08/24 02:35:22;;;;;;;21.50;6.92;;;;;;;21.52;72.83;101015.11;1785492;80;21131;-62
2021/08/24 02:38:06;;;;;;;17.12;6.60;;;;;;;21.47;73.18;101003.18;1708018;83;22319;-63
2021/08/24 02:40:53;;;;;;;29.63;7.00;;;;;;;21.41;73.98;100998.69;1744415;82;21079;-63
2021/08/24 02:43:38;;;;;;;30.80;7.58;;;;;;;21.41;73.98;100998.69;1745554;82;21036;-61
2021/08/24 02:46:27;;;;;;;35.33;7.70;;;;;;;21.38;74.49;100999.81;1743275;82;21048;-61
2021/08/24 02:49:10;;;;;;;29.95;7.40;;;;;;;21.40;74.95;101003.29;1745668;81;21192;-62
2021/08/24 02:51:37;;;;;;;30.65;7.20;;;;;;;21.44;75.17;101003.42;1782443;79;21508;-62
2021/08/24 02:54:14;;;;;;;25.12;7.70;;;;;;;21.51;75.32;101001.09;1783057;79;21088;-62
2021/08/24 02:56:41;;;;;;;34.20;7.47;;;;;;;21.57;75.31;101003.34;1759980;80;21020;-62
2021/08/24 02:59:08;;;;;;;30.75;7.80;;;;;;;21.59;75.27;100996.41;1784998;80;21019;-62
2021/08/24 03:01:38;;;;;;;40.70;8.05;;;;;;;21.61;75.31;101004.83;1784322;80;22357;-61
2021/08/24 03:04:05;;;;;;;39.88;8.38;;;;;;;21.64;75.38;101000.13;1783320;79;21299;-62
2021/08/24 03:06:33;;;;;;;30.90;7.58;;;;;;;21.64;75.37;100999.64;1759665;80;21074;-62
2021/08/24 03:09:01;;;;;;;40.83;7.37;;;;;;;21.62;75.35;100993.44;1767812;81;21480;-62
2021/08/24 03:11:30;;;;;;;31.40;7.92;;;;;;;21.64;75.65;100987.84;1729443;81;21124;-62
2021/08/24 03:14:17;;;;;;;30.60;7.17;;;;;;;21.65;75.90;100989.61;1766796;81;21851;-62
2021/08/24 03:16:48;;;;;;;43.05;8.50;;;;;;;21.67;76.16;100990.39;1763660;80;21604;-62
2021/08/24 03:19:19;;;;;;;29.15;7.20;;;;;;;21.68;76.38;100995.71;1766075;80;21026;-63
2021/08/24 03:21:47;;;;;;;35.65;7.80;;;;;;;21.72;76.42;100998.56;1757760;79;20999;-61
2021/08/24 03:24:16;;;;;;;24.90;6.67;;;;;;;21.73;76.79;100989.39;1764148;79;21000;-62
2021/08/24 03:26:43;;;;;;;22.65;6.22;;;;;;;21.79;76.82;100992.13;1769857;80;21126;-61
2021/08/24 03:29:17;;;;;;;29.05;6.65;;;;;;;21.84;77.15;100984.45;1765503;80;21075;-62
2021/08/24 03:31:46;;;;;;;17.70;6.27;;;;;;;21.90;77.24;100987.19;1758990;80;21041;-62
2021/08/24 03:34:13;;;;;;;18.87;5.55;;;;;;;21.97;77.64;100995.25;1765368;79;21308;-63
2021/08/24 03:36:40;;;;;;;15.53;5.40;;;;;;;22.07;78.12;101002.73;1767690;79;21093;-61
2021/08/24 03:39:07;;;;;;;13.15;5.03;;;;;;;22.16;78.22;100997.40;1767728;81;21849;-62
2021/08/24 03:41:35;;;;;;;12.93;5.30;;;;;;;22.25;78.16;100989.45;1767474;79;21073;-63
2021/08/24 03:44:04;;;;;;;12.47;5.65;;;;;;;22.35;78.10;100997.77;1766739;80;21053;-63
2021/08/24 03:46:31;;;;;;;13.05;5.28;;;;;;;22.45;78.08;101002.34;1769728;81;21065;-64
2021/08/24 03:48:58;;;;;;;14.10;5.10;;;;;;;22.57;77.82;100999.14;1767298;81;21092;-62
2021/08/24 03:51:25;;;;;;;11.65;4.95;;;;;;;22.67;77.33;101003.34;1765725;81;21111;-62
2021/08/24 03:53:53;;;;;;;11.33;4.40;;;;;;;22.76;77.03;101001.72;1763885;79;21542;-62
2021/08/24 03:56:21;;;;;;;13.20;4.83;;;;;;;22.84;76.37;101002.45;1766966;79;21045;-62
2021/08/24 03:58:48;;;;;;;15.03;5.28;;;;;;;22.97;75.98;101000.92;1765589;81;20994;-64
2021/08/24 04:01:17;;;;;;;14.25;5.10;;;;;;;23.08;75.69;101000.88;1761171;81;21115;-62
2021/08/24 04:03:44;;;;;;;11.10;4.92;;;;;;;23.14;75.44;101005.84;1755572;81;21770;-63
2021/08/24 04:06:11;;;;;;;8.48;4.40;;;;;;;23.22;75.15;101001.58;1767855;79;21124;-62
2021/08/24 04:08:38;;;;;;;11.83;4.90;;;;;;;23.28;75.12;100996.50;1762140;81;20993;-62
2021/08/24 04:11:06;;;;;;;7.78;4.40;;;;;;;23.41;74.79;100996.31;1767523;81;21112;-62
2021/08/24 04:13:33;;;;;;;9.13;4.62;;;;;;;23.53;74.39;100996.23;1763882;81;21041;-61
2021/08/24 04:16:09;;;;;;;11.40;4.90;;;;;;;23.64;73.73;101000.78;1768133;81;21143;-64
2021/08/24 04:18:36;;;;;;;12.98;4.25;;;;;;;23.72;73.45;100995.00;1769405;80;21679;-63
2021/08/24 04:21:09;;;;;;;12.25;4.40;;;;;;;23.83;72.19;100997.32;1765547;81;21092;-61
2021/08/24 04:23:37;;;;;;;13.32;4.83;;;;;;;23.94;71.72;100996.37;1766034;79;21045;-63
2021/08/24 04:26:04;;;;;;;8.78;4.75;;;;;;;24.05;71.19;100994.09;1764978;81;21549;-63
2021/08/24 04:28:31;;;;;;;8.23;4.65;;;;;;;24.11;71.13;100992.16;1767926;81;21836;-64
2021/08/24 04:30:58;;;;;;;10.55;4.40;;;;;;;24.19;71.02;100997.81;1763200;81;21041;-62
2021/08/24 04:33:25;;;;;;;7.78;4.17;;;;;;;24.26;70.69;100992.17;1764632;79;20970;-65
2021/08/24 04:35:53;;;;;;;7.10;4.90;;;;;;;24.37;70.52;100999.91;1771534;79;20998;-63
2021/08/24 04:38:21;;;;;;;6.53;4.20;;;;;;;24.46;70.23;100996.36;1756731;81;21032;-63
2021/08/24 04:40:48;;;;;;;8.18;4.03;;;;;;;24.54;69.23;100997.89;1766037;81;21076;-63
2021/08/24 04:43:15;;;;;;;8.98;4.20;;;;;;;24.64;68.92;101001.15;1767057;81;21626;-63
2021/08/24 04:45:45;;;;;;;7.92;4.25;;;;;;;24.73;68.37;101005.81;1763322;81;21061;-63
2021/08/24 04:48:12;;;;;;;6.72;4.53;;;;;;;24.81;67.70;101001.88;1766961;81;21017;-63
2021/08/24 04:50:40;;;;;;;8.95;4.20;;;;;;;24.85;67.54;101004.70;1764705;81;21114;-63
2021/08/24 04:53:09;;;;;;;11.40;4.28;;;;;;;24.93;67.55;101010.00;1763038;81;20965;-63
2021/08/24 04:55:36;;;;;;;9.10;4.40;;;;;;;24.96;67.71;101002.86;1769740;79;21052;-63
2021/08/24 04:58:03;;;;;;;13.90;5.22;;;;;;;25.01;67.57;101006.03;1766958;80;21065;-63
2021/08/24 05:00:31;;;;;;;9.58;4.17;;;;;;;25.06;67.11;101002.87;1761552;81;21151;-63
2021/08/24 05:02:58;;;;;;;8.53;4.40;;;;;;;25.11;66.61;100998.70;1766384;81;21033;-63
2021/08/24 05:05:25;;;;;;;13.75;4.42;;;;;;;25.18;66.25;101005.33;1755171;80;21306;-63
2021/08/24 05:07:52;;;;;;;6.22;4.30;;;;;;;25.21;65.75;101000.56;1768206;81;21053;-63
2021/08/24 05:10:20;;;;;;;10.23;4.50;;;;;;;25.20;65.68;101004.32;1764192;79;21080;-63
2021/08/24 05:12:47;;;;;;;11.97;4.12;;;;;;;25.13;65.50;101006.27;1766981;81;21057;-63
2021/08/24 05:15:14;;;;;;;9.65;4.20;;;;;;;25.09;65.50;101005.32;1768040;81;21074;-63
2021/08/24 05:17:41;;;;;;;7.37;4.12;;;;;;;25.15;65.55;101006.11;1766874;79;23277;-63
2021/08/24 05:20:09;;;;;;;7.22;3.85;;;;;;;25.27;64.84;101005.47;1768975;81;21041;-63
2021/08/24 05:22:36;;;;;;;14.45;4.58;;;;;;;25.37;64.50;101007.72;1767580;81;21021;-62
2021/08/24 05:25:04;;;;;;;7.10;4.22;;;;;;;25.43;63.62;100998.90;1767152;81;21089;-63
2021/08/24 05:27:33;;;;;;;14.98;4.00;;;;;;;25.45;63.40;100996.87;1764950;81;21613;-63
2021/08/24 05:30:06;;;;;;;6.95;4.12;;;;;;;25.53;63.41;101000.79;1769381;81;21132;-62
2021/08/24 05:32:33;;;;;;;9.73;3.95;;;;;;;25.61;62.84;101007.81;1766702;80;21012;-64
2021/08/24 05:35:00;;;;;;;7.60;3.58;;;;;;;25.71;62.44;101010.02;1768284;81;21116;-62
2021/08/24 05:37:27;;;;;;;12.13;4.83;;;;;;;25.76;61.85;101014.23;1766815;81;21029;-63
2021/08/24 05:39:55;;;;;;;10.38;3.90;;;;;;;25.83;61.79;101003.00;1766063;81;21021;-62
2021/08/24 05:42:22;;;;;;;8.28;4.25;;;;;;;26.08;61.73;101012.98;1766102;79;21132;-62
2021/08/24 05:44:49;;;;;;;9.58;3.70;;;;;;;26.43;60.64;101014.19;1702466;84;21041;-61
2021/08/24 05:47:16;;;;;;;8.50;3.85;;;;;;;26.68;58.93;101013.13;1723272;83;21050;-64
2021/08/24 05:49:43;;;;;;;12.35;4.53;;;;;;;26.74;58.95;101012.50;1717076;83;21506;-63
2021/08/24 05:52:10;;;;;;;9.13;3.77;;;;;;;26.70;58.82;101010.55;1734401;81;21044;-64
2021/08/24 05:54:38;;;;;;;10.93;4.03;;;;;;;26.63;58.64;101010.83;1739391;81;22188;-64
2021/08/24 05:57:05;;;;;;;10.13;4.30;;;;;;;26.52;59.10;101011.89;1723072;82;21088;-63
2021/08/24 05:59:35;;;;;;;6.70;3.70;;;;;;;26.47;59.09;101011.49;1725527;83;21060;-63
2021/08/24 06:02:03;;;;;;;8.50;3.55;;;;;;;26.46;59.20;101015.26;1729644;82;21095;-64
2021/08/24 06:04:30;;;;;;;6.53;4.00;;;;;;;26.46;59.30;101010.61;1725883;82;21068;-64
2021/08/24 06:06:57;;;;;;;6.62;4.08;;;;;;;26.51;59.10;101008.78;1721982;82;21130;-63
2021/08/24 06:09:24;;;;;;;6.95;3.45;;;;;;;26.57;58.72;101013.66;1710858;83;21119;-61
2021/08/24 06:11:51;;;;;;;6.53;3.92;;;;;;;26.62;58.64;101015.09;1710967;83;21083;-63
2021/08/24 06:14:20;;;;;;;11.12;3.75;;;;;;;26.63;57.86;101015.44;1695474;83;21520;-63
2021/08/24 06:16:54;;;;;;;8.83;3.70;;;;;;;26.55;58.49;101008.83;1704343;83;21100;-63
2021/08/24 06:19:16;;;;;;;6.10;3.65;;;;;;;26.49;58.53;101013.58;1711079;83;21147;-65
2021/08/24 06:21:44;;;;;;;8.40;3.92;;;;;;;26.48;58.46;101021.47;1711678;83;21072;-63
2021/08/24 06:24:11;;;;;;;8.68;3.98;;;;;;;26.41;58.23;101017.08;1706964;83;21059;-64
2021/08/24 06:26:38;;;;;;;8.48;3.52;;;;;;;26.37;58.58;101018.90;1719560;83;21060;-63
2021/08/24 06:29:05;;;;;;;8.20;3.65;;;;;;;26.36;58.30;101022.66;1699059;83;21088;-64
2021/08/24 06:31:32;;;;;;;10.60;3.70;;;;;;;26.33;58.44;101025.72;1720212;83;21469;-63
2021/08/24 06:33:59;;;;;;;7.28;4.00;;;;;;;26.25;58.28;101017.73;1718220;83;21111;-62
2021/08/24 06:36:26;;;;;;;9.50;4.15;;;;;;;26.14;58.77;101024.24;1711919;83;22278;-64
2021/08/24 06:38:53;;;;;;;7.72;3.90;;;;;;;26.03;59.12;101007.44;1711184;83;21037;-63
2021/08/24 06:41:21;;;;;;;7.70;3.67;;;;;;;26.02;59.31;101007.08;1711776;83;21122;-63
2021/08/24 06:43:48;;;;;;;6.35;3.90;;;;;;;26.10;59.25;101015.06;1711673;83;21600;-63
2021/08/24 06:46:15;;;;;;;8.33;4.10;;;;;;;26.20;58.98;101015.95;1709746;83;21088;-64
2021/08/24 06:48:41;;;;;;;11.28;3.85;;;;;;;26.23;58.94;101014.27;1710681;83;21060;-64
2021/08/24 06:51:09;;;;;;;6.35;3.75;;;;;;;26.23;59.15;101012.89;1709956;83;21111;-64
2021/08/24 06:53:37;;;;;;;10.40;4.08;;;;;;;26.19;59.18;101018.31;1704246;83;21087;-64
2021/08/24 06:56:05;;;;;;;9.35;3.90;;;;;;;26.17;58.89;101020.34;1713555;83;21258;-63
2021/08/24 06:58:32;;;;;;;7.10;3.87;;;;;;;26.07;58.90;101014.84;1718950;83;21399;-64
2021/08/24 07:00:59;;;;;;;6.87;3.75;;;;;;;26.06;58.84;101018.61;1702204;83;21047;-64
2021/08/24 07:03:26;;;;;;;8.93;4.42;;;;;;;26.08;58.70;101026.19;1711800;83;21057;-62
2021/08/24 07:05:53;;;;;;;6.17;3.80;;;;;;;26.08;58.69;101032.21;1708243;81;21058;-63
2021/08/24 07:08:19;;;;;;;7.72;4.03;;;;;;;26.07;58.55;101020.86;1706617;83;21579;-64
2021/08/24 07:10:48;;;;;;;7.10;3.98;;;;;;;26.02;58.81;101033.17;1707334;83;21099;-62
2021/08/24 07:13:18;;;;;;;12.90;4.05;;;;;;;26.01;59.39;101034.19;1710727;83;21047;-63
2021/08/24 07:15:45;;;;;;;7.67;3.77;;;;;;;26.09;59.17;101042.19;1709904;83;21071;-62
2021/08/24 07:18:13;;;;;;;12.40;4.55;;;;;;;26.19;58.94;101033.42;1720106;81;21063;-63
2021/08/24 07:20:41;;;;;;;9.60;4.03;;;;;;;26.26;58.55;101034.58;1713994;83;21613;-64
2021/08/24 07:23:08;;;;;;;6.70;3.92;;;;;;;26.29;58.11;101041.14;1712963;83;21239;-63
2021/08/24 07:25:37;;;;;;;6.17;3.87;;;;;;;26.28;58.31;101036.66;1711849;83;21063;-63
2021/08/24 07:28:09;;;;;;;7.92;4.45;;;;;;;26.35;58.02;101042.92;1703528;83;21122;-62
2021/08/24 07:30:35;;;;;;;9.38;4.10;;;;;;;26.40;58.36;101039.20;1705288;83;21612;-64
2021/08/24 07:33:02;;;;;;;8.63;4.60;;;;;;;26.45;57.76;101049.27;1713996;83;21126;-64
2021/08/24 07:35:30;;;;;;;8.43;3.92;;;;;;;26.40;58.01;101042.83;1707386;83;21044;-63
2021/08/24 07:37:57;;;;;;;10.53;4.22;;;;;;;26.43;57.93;101045.27;1702292;83;21055;-60
2021/08/24 07:40:24;;;;;;;7.05;4.10;;;;;;;26.43;57.64;101049.92;1711280;83;21532;-64
2021/08/24 07:42:50;;;;;;;9.13;4.40;;;;;;;26.41;57.29;101051.92;1707291;81;21082;-64
2021/08/24 07:45:17;;;;;;;8.20;3.75;;;;;;;26.41;57.66;101046.44;1708936;83;21302;-63
2021/08/24 07:47:45;;;;;;;10.72;4.17;;;;;;;26.39;57.39;101041.10;1693476;83;22180;-63
2021/08/24 07:50:13;;;;;;;8.93;3.85;;;;;;;26.43;57.36;101046.65;1712071;81;21003;-61
2021/08/24 07:52:41;;;;;;;5.03;3.75;;;;;;;26.49;57.26;101045.19;1699920;83;21132;-63
2021/08/24 07:55:08;;;;;;;12.28;4.12;;;;;;;26.46;56.78;101043.59;1694692;83;21031;-63
2021/08/24 07:57:35;;;;;;;11.03;4.40;;;;;;;26.50;56.81;101046.92;1712986;81;21675;-62
2021/08/24 08:00:03;;;;;;;6.97;4.12;;;;;;;26.49;57.04;101037.44;1691438;83;21147;-61
2021/08/24 08:02:32;;;;;;;10.08;4.00;;;;;;;26.51;56.97;101044.53;1710190;83;21509;-63
2021/08/24 08:04:59;;;;;;;12.30;3.87;;;;;;;26.54;56.63;101040.09;1713453;83;21004;-62
2021/08/24 08:07:26;;;;;;;8.38;4.17;;;;;;;26.59;55.41;101045.99;1712048;81;21115;-62
2021/08/24 08:09:52;;;;;;;8.45;4.12;;;;;;;26.62;55.96;101043.46;1736299;80;21138;-62
2021/08/24 08:12:19;;;;;;;13.38;4.03;;;;;;;26.66;55.96;101048.16;1725289;82;21068;-62
2021/08/24 08:14:48;;;;;;;10.40;4.03;;;;;;;26.68;55.74;101035.97;1733499;82;21051;-63
2021/08/24 08:17:15;;;;;;;5.75;3.62;;;;;;;26.69;55.87;101043.72;1731436;81;21588;-62
2021/08/24 08:19:42;;;;;;;15.20;4.08;;;;;;;26.72;55.75;101044.79;1731842;81;21492;-62
2021/08/24 08:22:09;;;;;;;11.33;3.85;;;;;;;26.72;55.75;101050.28;1722901;83;21089;-64
2021/08/24 08:24:36;;;;;;;9.30;4.12;;;;;;;26.70;55.36;101050.95;1721875;83;22105;-63
2021/08/24 08:27:04;;;;;;;10.78;4.00;;;;;;;26.66;55.61;101053.66;1726166;83;21548;-63
2021/08/24 08:29:31;;;;;;;10.93;4.30;;;;;;;26.67;55.20;101056.23;1736612;82;20992;-62
2021/08/24 08:32:04;;;;;;;10.23;3.87;;;;;;;26.68;55.27;101049.72;1719085;82;21021;-62
2021/08/24 08:34:32;;;;;;;8.30;3.87;;;;;;;26.66;56.09;101038.53;1720751;83;21158;-61
2021/08/24 08:36:59;;;;;;;5.65;4.00;;;;;;;26.64;56.32;101039.17;1726273;81;21507;-64
2021/08/24 08:39:26;;;;;;;7.67;3.60;;;;;;;26.59;55.95;101032.25;1726395;83;21084;-63
2021/08/24 08:42:09;;;;;;;7.35;4.55;;;;;;;26.60;55.77;101032.60;1725521;83;21604;-64
2021/08/24 08:44:59;;;;;;;6.20;4.15;;;;;;;26.62;54.89;101032.47;1725095;83;22448;-62
2021/08/24 08:47:31;;;;;;;7.45;3.98;;;;;;;26.65;54.62;101032.16;1729483;82;21025;-63
2021/08/24 08:50:10;;;;;;;7.10;4.08;;;;;;;26.70;55.28;101040.80;1734084;82;21007;-64
2021/08/24 08:53:01;;;;;;;8.40;3.58;;;;;;;26.71;55.63;101037.56;1720361;82;21103;-64
2021/08/24 08:55:36;;;;;;;9.53;4.17;;;;;;;26.69;55.80;101042.34;1726293;83;21033;-63
2021/08/24 08:58:36;;;;;;;11.53;4.20;;;;;;;26.68;55.77;101039.25;1727108;82;21539;-63
2021/08/24 09:01:14;;;;;;;6.90;3.90;;;;;;;26.70;55.58;101039.95;1676631;83;21154;-64
2021/08/24 09:03:54;;;;;;;10.70;3.90;;;;;;;26.73;54.90;101049.27;1713607;82;21079;-60
2021/08/24 09:06:24;;;;;;;7.40;4.10;;;;;;;26.72;54.89;101038.77;1729974;81;21107;-62
2021/08/24 09:08:52;;;;;;;6.87;4.30;;;;;;;26.77;55.13;101038.31;1726730;83;21045;-63
2021/08/24 09:11:24;;;;;;;12.13;4.28;;;;;;;26.80;55.30;101035.78;1720789;83;21498;-63
2021/08/24 09:13:57;;;;;;;10.03;4.20;;;;;;;26.80;54.99;101033.87;1723332;83;21128;-62
2021/08/24 09:16:37;;;;;;;8.53;3.98;;;;;;;26.85;55.17;101037.05;1704794;83;21063;-63
2021/08/24 09:19:21;;;;;;;9.18;4.08;;;;;;;26.92;54.68;101039.21;1723626;82;21132;-62
2021/08/24 09:21:48;;;;;;;10.55;4.42;;;;;;;26.94;54.75;101038.55;1713189;82;21406;-63
2021/08/24 09:24:24;;;;;;;9.28;4.10;;;;;;;26.96;54.25;101032.38;1732394;82;21508;-63
2021/08/24 09:26:59;;;;;;;11.15;4.40;;;;;;;26.98;54.24;101033.97;1731259;81;21580;-62
2021/08/24 09:29:33;;;;;;;6.60;4.10;;;;;;;27.02;54.16;101033.13;1734787;81;21064;-62
2021/08/24 09:32:06;;;;;;;8.85;3.77;;;;;;;27.08;54.18;101031.64;1721229;82;21135;-63
2021/08/24 09:34:37;;;;;;;10.60;4.35;;;;;;;27.10;54.31;101023.59;1734852;81;21041;-63
2021/08/24 09:37:04;;;;;;;7.22;3.77;;;;;;;27.13;54.00;101027.41;1723416;82;21514;-62
2021/08/24 09:40:00;;;;;;;7.28;4.33;;;;;;;27.12;53.70;101026.17;1729032;82;21124;-64
2021/08/24 09:42:37;;;;;;;10.35;4.33;;;;;;;27.10;52.76;101026.34;1726161;82;21035;-63
2021/08/24 09:45:22;;;;;;;10.95;4.50;;;;;;;27.06;52.20;101029.03;1730596;82;21047;-62
2021/08/24 09:48:00;;;;;;;9.13;4.12;;;;;;;27.06;53.18;101023.53;1727072;82;28781;-64
2021/08/24 09:50:42;;;;;;;7.08;4.30;;;;;;;27.08;51.93;101025.64;1719593;81;20997;-64
2021/08/24 09:53:32;;;;;;;7.80;4.10;;;;;;;27.08;51.82;101016.02;1700649;84;21504;-62
2021/08/24 09:56:01;;;;;;;7.72;4.12;;;;;;;27.06;51.96;101014.42;1723675;82;21080;-62
2021/08/24 09:58:35;;;;;;;6.85;4.00;;;;;;;26.95;52.20;101023.77;1733178;82;21081;-63
2021/08/24 10:01:11;;;;;;;11.03;4.40;;;;;;;26.85;52.33;101020.55;1735941;82;21095;-62
2021/08/24 10:03:42;;;;;;;6.08;4.33;;;;;;;26.80;52.86;101022.88;1733197;82;21110;-62
2021/08/24 10:06:31;;;;;;;8.75;3.80;;;;;;;26.77;52.76;101017.69;1735722;82;21098;-62
2021/08/24 10:09:19;;;;;;;9.13;4.00;;;;;;;26.77;52.27;101025.94;1724968;82;21107;-61
2021/08/24 10:11:46;;;;;;;7.53;4.25;;;;;;;26.76;52.65;101022.83;1717078;82;21024;-64
2021/08/24 10:14:25;;;;;;;9.35;4.75;;;;;;;26.76;53.23;101026.95;1715414;83;21041;-62
2021/08/24 10:17:00;;;;;;;6.05;4.22;;;;;;;26.75;53.12;101027.98;1726618;83;21553;-60
2021/08/24 10:19:31;;;;;;;9.03;4.33;;;;;;;26.72;52.40;101025.54;1734346;82;21123;-62
2021/08/24 10:22:06;;;;;;;;;;;;;;;26.67;52.30;101025.14;1735987;82;21028;-62
2021/08/24 10:24:37;;;;;;;7.20;3.65;;;;;;;26.64;52.75;101022.67;1734041;82;20192;-62
2021/08/24 10:27:08;;;;;;;8.23;4.50;;;;;;;26.61;53.32;101018.36;1721395;81;21083;-62
2021/08/24 10:29:38;;;;;;;8.18;4.47;;;;;;;26.56;53.74;101016.06;1717163;83;21088;-62
2021/08/24 10:32:09;;;;;;;8.30;4.20;;;;;;;26.56;54.30;101016.06;1725657;82;21115;-62
2021/08/24 10:34:45;;;;;;;7.42;4.42;;;;;;;26.54;53.66;101007.10;1724409;81;22305;-63
2021/08/24 10:37:28;;;;;;;11.75;4.30;;;;;;;26.54;53.45;101009.00;1722602;83;21052;-61
2021/08/24 10:40:10;;;;;;;8.45;4.60;;;;;;;26.55;53.26;101004.70;1716967;81;21040;-62
2021/08/24 10:42:42;;;;;;;10.73;4.67;;;;;;;26.58;53.05;101010.42;1698547;83;21501;-62
2021/08/24 10:45:30;;;;;;;7.67;5.17;;;;;;;26.59;54.04;101007.50;1725082;83;21112;-62
2021/08/24 10:47:59;;;;;;;7.97;4.58;;;;;;;26.60;53.66;101001.52;1720001;83;21514;-62
2021/08/24 10:51:06;;;;;;;7.10;4.45;;;;;;;26.59;52.85;101004.75;1724900;83;21124;-62
2021/08/24 10:54:06;;;;;;;10.88;4.30;;;;;;;26.60;51.68;101007.86;1711944;83;21528;-62
2021/08/24 10:56:48;;;;;;;7.75;4.37;;;;;;;26.59;52.28;101008.88;1712165;83;21075;-61
2021/08/24 10:59:54;;;;;;;8.90;4.20;;;;;;;26.61;53.01;101001.86;1723610;83;21434;-61
2021/08/24 11:02:47;;;;;;;10.78;4.00;;;;;;;26.63;53.09;101003.06;1716871;83;21017;-62
2021/08/24 11:05:53;;;;;;;7.80;4.50;;;;;;;26.63;52.28;101002.58;1721805;83;21073;-61
2021/08/24 11:09:04;;;;;;;11.83;4.22;;;;;;;26.68;52.63;100999.37;1714092;82;21132;-62
2021/08/24 11:11:58;;;;;;;8.15;4.12;;;;;;;26.72;53.24;101007.14;1745306;81;22281;-61
2021/08/24 11:15:15;;;;;;;8.60;4.37;;;;;;;26.73;52.54;100986.02;1742104;81;21054;-63
2021/08/24 11:17:59;;;;;;;8.13;4.35;;;;;;;26.70;52.23;100992.68;1678012;83;21592;-63
2021/08/24 11:20:58;;;;;;;10.93;5.23;;;;;;;26.67;52.06;100985.27;1707055;83;21228;-62
2021/08/24 11:24:06;;;;;;;8.35;4.17;;;;;;;26.61;51.99;100990.87;1765137;80;21079;-62
2021/08/24 11:27:00;;;;;;;7.28;4.15;;;;;;;26.59;52.96;100977.26;1733923;80;22337;-63
2021/08/24 11:29:32;;;;;;;11.25;4.83;;;;;;;26.65;51.39;100974.94;1776454;80;21941;-63
2021/08/24 11:32:25;;;;;;;6.35;4.42;;;;;;;26.68;50.47;100976.00;1779163;80;21154;-62
2021/08/24 11:35:06;;;;;;;5.95;4.25;;;;;;;26.70;50.41;100979.45;1705729;83;21063;-62
2021/08/24 11:37:44;;;;;;;8.35;3.98;;;;;;;26.71;51.00;100968.81;1745923;82;21116;-63
2021/08/24 11:40:16;;;;;;;6.85;4.37;;;;;;;26.73;51.72;100976.39;1746313;82;21480;-61
2021/08/24 11:42:48;;;;;;;6.60;4.03;;;;;;;26.73;50.03;100961.27;1769656;80;21510;-62
2021/08/24 11:45:47;;;;;;;10.93;4.33;;;;;;;26.70;50.52;100962.43;1776742;80;21445;-62
2021/08/24 11:48:26;;;;;;;9.00;4.20;;;;;;;26.71;52.34;100966.91;1773333;80;21537;-62
2021/08/24 11:51:04;;;;;;;9.70;4.50;;;;;;;26.69;52.70;100961.23;1768996;80;20989;-62